Clinton, Illinois
Current Conditions -  °F | °C
As of 4:55 PM on Wednesday 26 Nov 2014 (Local Time) from KAAA Reporting Station
Light Snow Light Snow  
Wind Chill: 24°   Ceiling: 1500
Heat Index: 31°   Visibility: 2.5mi
Dew Point: 28°   Wind: 7mph
Humidity: 92%   Direction: 80°E
Pressure: 30.08"   Gusts: NA
Location:  40.15°N, 88.96°W
Report Text: KAAA 262255Z AUTO 08006KT 2 1/2SM -SN SCT007 OVC015 M01/M02 A3008 RMK AO2 T10081020
Loading
Personal Weather Stations






























Interactive Weather Map New forecast layout! Learn more

10-Day Weather Forecast

Advertisements
Track Severe Weather on mobile